createdAt,value
2022-09-24T00:00:46.315Z,56.88
2022-09-24T00:01:46.379Z,58.01
2022-09-24T00:02:46.332Z,58.81
2022-09-24T00:03:46.282Z,58.81
2022-09-24T00:04:46.274Z,58.01
2022-09-24T00:05:46.263Z,60.75
2022-09-24T00:06:46.272Z,59.94
2022-09-24T00:07:46.237Z,59.46
2022-09-24T00:08:46.231Z,58.33
2022-09-24T00:09:46.227Z,58.49
2022-09-24T00:10:46.203Z,57.85
2022-09-24T00:11:46.210Z,57.85
2022-09-24T00:12:46.193Z,59.46
2022-09-24T00:13:46.178Z,59.30
2022-09-24T00:14:46.172Z,58.97
2022-09-24T00:15:46.180Z,57.52
2022-09-24T00:16:46.168Z,57.52
2022-09-24T00:17:46.142Z,58.49
2022-09-24T00:18:46.144Z,57.52
2022-09-24T00:19:46.126Z,58.49
2022-09-24T00:20:46.107Z,57.69
2022-09-24T00:21:46.130Z,58.17
2022-09-24T00:22:46.091Z,58.97
2022-09-24T00:23:46.065Z,57.52
2022-09-24T00:24:46.074Z,58.33
2022-09-24T00:25:46.062Z,57.36
2022-09-24T00:26:46.092Z,59.62
2022-09-24T00:27:46.037Z,58.01
2022-09-24T00:28:46.028Z,58.33
2022-09-24T00:29:46.021Z,59.14
2022-09-24T00:30:46.017Z,57.85
2022-09-24T00:31:46.081Z,56.24
2022-09-24T00:32:45.990Z,56.07
2022-09-24T00:33:45.980Z,57.04
2022-09-24T00:34:45.968Z,57.69
2022-09-24T00:35:45.955Z,58.33
2022-09-24T00:37:11.869Z,59.46
2022-09-24T00:37:45.938Z,56.40
2022-09-24T00:38:45.926Z,57.52
2022-09-24T00:39:45.901Z,58.33
2022-09-24T00:40:45.975Z,58.17
2022-09-24T00:41:45.913Z,60.42
2022-09-24T00:42:45.882Z,56.72
2022-09-24T00:43:45.863Z,58.33
2022-09-24T00:44:45.898Z,58.01
2022-09-24T00:45:45.852Z,56.72
2022-09-24T00:46:45.902Z,56.56
2022-09-24T00:47:45.819Z,58.01
2022-09-24T00:48:45.819Z,59.30
2022-09-24T00:49:45.811Z,58.97
2022-09-24T00:50:45.796Z,56.88
2022-09-24T00:51:45.807Z,55.75
2022-09-24T00:52:45.779Z,55.91
2022-09-24T00:53:45.779Z,58.33
2022-09-24T00:54:45.757Z,56.88
2022-09-24T00:55:45.746Z,59.46
2022-09-24T00:56:45.754Z,55.91
2022-09-24T00:57:45.724Z,57.85
2022-09-24T00:58:45.721Z,57.52
2022-09-24T00:59:45.705Z,56.56
2022-09-24T01:00:45.772Z,57.52
2022-09-24T01:01:45.744Z,55.75
2022-09-24T01:02:45.683Z,57.20
2022-09-24T01:03:45.654Z,57.52
2022-09-24T01:04:45.661Z,57.36
2022-09-24T01:05:45.646Z,57.85
2022-09-24T01:06:45.652Z,56.88
2022-09-24T01:07:45.634Z,57.85
2022-09-24T01:08:45.613Z,57.52
2022-09-24T01:09:45.611Z,57.69
2022-09-24T01:10:45.597Z,56.40
2022-09-24T01:11:45.624Z,57.20
2022-09-24T01:12:45.576Z,57.85
2022-09-24T01:13:45.574Z,58.17
2022-09-24T01:14:45.552Z,58.01
2022-09-24T01:15:45.621Z,57.36
2022-09-24T01:16:45.559Z,57.20
2022-09-24T01:17:45.534Z,57.20
2022-09-24T01:18:45.515Z,58.01
2022-09-24T01:19:45.498Z,59.46
2022-09-24T01:20:45.496Z,58.49
2022-09-24T01:21:45.499Z,59.94
2022-09-24T01:22:45.476Z,59.46
2022-09-24T01:23:48.861Z,58.17
2022-09-24T01:24:45.454Z,57.69
2022-09-24T01:25:45.442Z,58.01
2022-09-24T01:26:45.451Z,58.01
2022-09-24T01:27:45.419Z,58.01
2022-09-24T01:28:45.415Z,59.46
2022-09-24T01:29:45.401Z,58.01
2022-09-24T01:30:45.395Z,58.97
2022-09-24T01:31:45.468Z,58.17
2022-09-24T01:32:45.379Z,57.52
2022-09-24T01:33:45.371Z,59.30
2022-09-24T01:34:45.354Z,56.88
2022-09-24T01:35:45.343Z,58.97
2022-09-24T01:36:45.356Z,59.62
2022-09-24T01:37:45.332Z,57.85
2022-09-24T01:38:45.315Z,58.17
2022-09-24T01:39:45.309Z,59.46
2022-09-24T01:40:45.406Z,57.69
2022-09-24T01:41:45.306Z,56.72
2022-09-24T01:42:45.274Z,57.20
2022-09-24T01:43:45.253Z,57.20
2022-09-24T01:44:45.265Z,58.49
2022-09-24T01:45:45.242Z,56.88
2022-09-24T01:46:45.335Z,58.65
2022-09-24T01:47:45.221Z,58.17
2022-09-24T01:48:45.224Z,57.69
2022-09-24T01:49:45.207Z,58.01
2022-09-24T01:50:45.194Z,58.97
2022-09-24T01:51:45.207Z,57.20
2022-09-24T01:52:45.201Z,59.14
2022-09-24T01:53:45.169Z,57.04
2022-09-24T01:54:45.163Z,58.33
2022-09-24T01:55:45.140Z,57.20
2022-09-24T01:56:45.157Z,56.88
2022-09-24T01:57:45.132Z,60.26
2022-09-24T01:58:45.130Z,58.81
2022-09-24T01:59:45.110Z,58.49
2022-09-24T02:00:45.181Z,60.75
2022-09-24T02:01:45.176Z,58.49
2022-09-24T02:02:45.080Z,57.85
2022-09-24T02:03:45.053Z,58.49
2022-09-24T02:04:45.062Z,59.62
2022-09-24T02:05:45.052Z,58.81
2022-09-24T02:06:45.059Z,61.07
2022-09-24T02:07:45.023Z,61.39
2022-09-24T02:08:45.026Z,58.49
2022-09-24T02:09:45.006Z,56.88
2022-09-24T02:10:46.007Z,59.78
2022-09-24T02:11:44.998Z,59.14
2022-09-24T02:12:45.004Z,57.69
2022-09-24T02:13:44.981Z,58.81
2022-09-24T02:14:44.966Z,58.97
2022-09-24T02:15:44.984Z,57.85
2022-09-24T02:16:44.969Z,55.75
2022-09-24T02:17:44.941Z,59.46
2022-09-24T02:18:44.939Z,57.85
2022-09-24T02:19:44.916Z,56.72
2022-09-24T02:20:44.918Z,57.69
2022-09-24T02:21:44.915Z,57.85
2022-09-24T02:22:44.894Z,59.14
2022-09-24T02:23:44.882Z,58.49
2022-09-24T02:24:44.873Z,56.88
2022-09-24T02:25:44.860Z,57.20
2022-09-24T02:26:44.876Z,57.20
2022-09-24T02:27:44.836Z,57.04
2022-09-24T02:28:44.837Z,57.85
2022-09-24T02:29:44.826Z,55.75
2022-09-24T02:30:44.810Z,58.01
2022-09-24T02:31:44.887Z,58.81
2022-09-24T02:32:44.788Z,58.01
2022-09-24T02:33:44.779Z,61.39
2022-09-24T02:34:44.770Z,57.85
2022-09-24T02:35:44.759Z,58.49
2022-09-24T02:36:44.768Z,59.62
2022-09-24T02:37:44.746Z,56.24
2022-09-24T02:38:44.732Z,58.01
2022-09-24T02:39:44.719Z,57.36
2022-09-24T02:40:44.728Z,57.36
2022-09-24T02:41:45.720Z,57.52
2022-09-24T02:42:44.684Z,56.07
2022-09-24T02:43:44.686Z,56.88
2022-09-24T02:44:44.671Z,57.85
2022-09-24T02:45:44.667Z,55.91
2022-09-24T02:46:44.726Z,56.24
2022-09-24T02:47:44.643Z,59.30
2022-09-24T02:48:44.631Z,56.56
2022-09-24T02:49:44.623Z,56.24
2022-09-24T02:50:44.613Z,56.88
2022-09-24T02:51:44.626Z,58.33
2022-09-24T02:52:44.593Z,57.20
2022-09-24T02:53:44.591Z,58.81
2022-09-24T02:54:44.570Z,58.97
2022-09-24T02:55:44.578Z,56.72
2022-09-24T02:56:44.579Z,58.01
2022-09-24T02:57:44.554Z,58.33
2022-09-24T02:58:44.527Z,58.81
2022-09-24T02:59:44.525Z,61.07
2022-09-24T03:00:45.518Z,57.85
2022-09-24T03:01:44.629Z,57.36
2022-09-24T03:02:44.612Z,58.81
2022-09-24T03:03:44.491Z,56.88
2022-09-24T03:04:44.482Z,58.01
2022-09-24T03:05:44.461Z,58.49
2022-09-24T03:06:45.477Z,58.97
2022-09-24T03:07:44.464Z,58.49
2022-09-24T03:08:44.437Z,59.94
2022-09-24T03:09:44.431Z,58.81
2022-09-24T03:10:44.413Z,58.49
2022-09-24T03:11:44.419Z,58.01
2022-09-24T03:12:44.429Z,58.65
2022-09-24T03:13:44.403Z,58.65
2022-09-24T03:14:44.363Z,58.97
2022-09-24T03:15:44.438Z,58.97
2022-09-24T03:16:44.387Z,60.26
2022-09-24T03:17:44.363Z,58.81
2022-09-24T03:18:44.336Z,59.46
2022-09-24T03:19:44.358Z,60.59
2022-09-24T03:20:44.326Z,60.91
2022-09-24T03:21:44.310Z,59.94
2022-09-24T03:22:44.318Z,60.91
2022-09-24T03:23:44.294Z,61.55
2022-09-24T03:24:44.284Z,60.91
2022-09-24T03:25:44.272Z,58.49
2022-09-24T03:26:44.264Z,58.97
2022-09-24T03:27:44.269Z,60.75
2022-09-24T03:28:44.236Z,60.10
2022-09-24T03:29:44.238Z,61.39
2022-09-24T03:30:44.222Z,58.17
2022-09-24T03:31:44.290Z,58.33
2022-09-24T03:32:44.225Z,58.97
2022-09-24T03:33:44.191Z,57.36
2022-09-24T03:34:44.175Z,59.46
2022-09-24T03:35:44.178Z,61.07
2022-09-24T03:36:44.169Z,62.68
2022-09-24T03:37:48.975Z,62.04
2022-09-24T03:38:45.147Z,59.46
2022-09-24T03:39:44.134Z,61.07
2022-09-24T03:40:44.201Z,60.26
2022-09-24T03:41:44.103Z,59.30
2022-09-24T03:42:44.124Z,60.59
2022-09-24T03:43:44.099Z,61.87
2022-09-24T03:44:44.090Z,61.55
2022-09-24T03:45:44.074Z,61.55
2022-09-24T03:46:44.142Z,62.52
2022-09-24T03:47:44.076Z,63.16
2022-09-24T03:48:44.055Z,63.49
2022-09-24T03:49:44.037Z,62.52
2022-09-24T03:50:44.026Z,60.91
2022-09-24T03:51:44.019Z,61.55
2022-09-24T03:52:44.027Z,62.52
2022-09-24T03:53:43.987Z,61.23
2022-09-24T03:54:43.993Z,60.91
2022-09-24T03:55:43.977Z,59.94
2022-09-24T03:56:43.966Z,59.46
2022-09-24T03:57:43.971Z,58.01
2022-09-24T03:58:43.946Z,59.14
2022-09-24T03:59:43.930Z,60.10
2022-09-24T04:00:43.922Z,60.59
2022-09-24T04:01:43.984Z,59.14
2022-09-24T04:02:43.958Z,59.30
2022-09-24T04:03:43.891Z,60.91
2022-09-24T04:04:43.887Z,61.39
2022-09-24T04:05:43.859Z,58.33
2022-09-24T04:06:43.854Z,58.81
2022-09-24T04:07:44.873Z,60.59
2022-09-24T04:08:43.842Z,60.10
2022-09-24T04:09:43.829Z,58.81
2022-09-24T04:10:43.829Z,60.26
2022-09-24T04:11:43.817Z,61.39
2022-09-24T04:12:43.820Z,60.10
2022-09-24T04:13:43.784Z,60.75
2022-09-24T04:14:43.779Z,62.04
2022-09-24T04:15:43.806Z,61.71
2022-09-24T04:16:43.761Z,61.23
2022-09-24T04:17:43.764Z,61.87
2022-09-24T04:18:43.731Z,60.26
2022-09-24T04:19:43.728Z,61.23
2022-09-24T04:20:43.715Z,60.42
2022-09-24T04:21:43.700Z,60.42
2022-09-24T04:22:43.711Z,59.46
2022-09-24T04:23:43.689Z,61.39
2022-09-24T04:24:43.681Z,62.52
2022-09-24T04:25:43.669Z,62.36
2022-09-24T04:26:43.661Z,62.84
2022-09-24T04:27:43.664Z,61.87
2022-09-24T04:28:43.643Z,60.10
2022-09-24T04:29:43.621Z,60.10
2022-09-24T04:30:43.613Z,61.07
2022-09-24T04:31:43.658Z,61.87
2022-09-24T04:32:43.618Z,62.52
2022-09-24T04:33:43.592Z,63.33
2022-09-24T04:34:43.583Z,62.52
2022-09-24T04:35:43.571Z,61.87
2022-09-24T04:36:43.558Z,62.20
2022-09-24T04:37:43.556Z,62.20
2022-09-24T04:38:43.538Z,63.33
2022-09-24T04:39:43.527Z,61.07
2022-09-24T04:40:43.561Z,62.52
2022-09-24T04:41:43.506Z,62.84
2022-09-24T04:42:43.511Z,63.00
2022-09-24T04:43:43.485Z,62.04
2022-09-24T04:44:43.481Z,63.16
2022-09-24T04:45:43.467Z,61.23
2022-09-24T04:46:43.519Z,61.55
2022-09-24T04:47:43.466Z,61.55
2022-09-24T04:48:43.429Z,59.94
2022-09-24T04:49:44.419Z,60.91
2022-09-24T04:50:46.165Z,63.16
2022-09-24T04:51:44.408Z,60.75
2022-09-24T04:52:43.411Z,61.55
2022-09-24T04:53:43.378Z,60.75
2022-09-24T04:54:43.375Z,60.91
2022-09-24T04:55:43.372Z,61.07
2022-09-24T04:56:43.369Z,61.71
2022-09-24T04:57:43.370Z,62.36
2022-09-24T04:58:43.344Z,60.59
2022-09-24T04:59:43.334Z,62.04
2022-09-24T05:00:44.327Z,62.68
2022-09-24T05:01:43.369Z,63.00
2022-09-24T05:02:43.466Z,61.23
2022-09-24T05:03:43.294Z,60.59
2022-09-24T05:04:43.286Z,61.87
2022-09-24T05:05:43.273Z,61.55
2022-09-24T05:06:43.264Z,61.55
2022-09-24T05:07:43.291Z,61.23
2022-09-24T05:08:43.257Z,64.45
2022-09-24T05:09:43.215Z,61.55
2022-09-24T05:10:43.219Z,61.39
2022-09-24T05:11:43.204Z,61.07
2022-09-24T05:12:43.213Z,61.07
2022-09-24T05:13:43.186Z,60.91
2022-09-24T05:14:43.181Z,62.04
2022-09-24T05:15:43.578Z,61.07
2022-09-24T05:16:43.155Z,62.36
2022-09-24T05:17:43.163Z,60.59
2022-09-24T05:18:43.137Z,61.55
2022-09-24T05:19:43.131Z,61.23
2022-09-24T05:20:43.112Z,61.87
2022-09-24T05:21:44.077Z,62.36
2022-09-24T05:22:43.113Z,61.55
2022-09-24T05:23:43.086Z,63.97
2022-09-24T05:24:43.090Z,62.68
2022-09-24T05:25:43.057Z,62.20
2022-09-24T05:26:43.050Z,61.55
2022-09-24T05:27:43.062Z,60.59
2022-09-24T05:28:43.045Z,62.04
2022-09-24T05:29:43.025Z,61.55
2022-09-24T05:30:43.009Z,62.04
2022-09-24T05:31:43.073Z,63.00
2022-09-24T05:32:43.007Z,62.36
2022-09-24T05:33:43.965Z,63.49
2022-09-24T05:34:42.979Z,62.84
2022-09-24T05:35:42.965Z,60.59
2022-09-24T05:36:42.956Z,64.13
2022-09-24T05:37:42.961Z,60.75
2022-09-24T05:38:42.933Z,62.20
2022-09-24T05:39:42.929Z,65.10
2022-09-24T05:40:42.966Z,63.00
2022-09-24T05:41:42.918Z,62.52
2022-09-24T05:42:42.911Z,62.04
2022-09-24T05:43:42.899Z,62.36
2022-09-24T05:44:42.885Z,65.58
2022-09-24T05:45:42.848Z,63.00
2022-09-24T05:46:42.919Z,64.94
2022-09-24T05:47:42.865Z,64.61
2022-09-24T05:48:42.828Z,62.52
2022-09-24T05:49:42.818Z,65.10
2022-09-24T05:50:42.807Z,62.84
2022-09-24T05:51:42.806Z,64.13
2022-09-24T05:52:42.813Z,62.36
2022-09-24T05:53:42.777Z,63.16
2022-09-24T05:54:42.782Z,61.55
2022-09-24T05:55:42.767Z,62.04
2022-09-24T05:56:42.761Z,62.04
2022-09-24T05:57:42.757Z,60.91
2022-09-24T05:58:42.733Z,60.59
2022-09-24T05:59:42.722Z,61.55
2022-09-24T06:00:42.714Z,61.07
2022-09-24T06:01:42.813Z,62.20
2022-09-24T06:02:42.763Z,59.94
2022-09-24T06:03:42.682Z,59.94
2022-09-24T06:04:42.672Z,59.94
2022-09-24T06:05:42.660Z,60.42
2022-09-24T06:06:42.649Z,62.04
2022-09-24T06:07:42.683Z,60.26
2022-09-24T06:08:42.635Z,62.36
2022-09-24T06:09:42.609Z,60.75
2022-09-24T06:10:42.610Z,61.87
2022-09-24T06:11:42.605Z,60.75
2022-09-24T06:12:42.613Z,61.23
2022-09-24T06:13:42.569Z,62.36
2022-09-24T06:14:42.588Z,60.91
2022-09-24T06:15:42.645Z,61.07
2022-09-24T06:16:42.608Z,60.59
2022-09-24T06:17:42.557Z,61.07
2022-09-24T06:18:42.533Z,62.36
2022-09-24T06:19:42.542Z,60.59
2022-09-24T06:20:42.518Z,60.10
2022-09-24T06:21:42.503Z,59.94
2022-09-24T06:22:42.509Z,60.91
2022-09-24T06:23:42.512Z,60.75
2022-09-24T06:24:42.475Z,60.59
2022-09-24T06:25:42.465Z,61.87
2022-09-24T06:26:42.446Z,59.78
2022-09-24T06:27:42.471Z,59.46
2022-09-24T06:28:42.429Z,58.49
2022-09-24T06:29:42.428Z,61.55
2022-09-24T06:30:42.421Z,58.65
2022-09-24T06:31:42.451Z,60.42
2022-09-24T06:32:42.420Z,59.46
2022-09-24T06:33:42.387Z,58.49
2022-09-24T06:34:42.373Z,59.30
2022-09-24T06:35:42.371Z,59.46
2022-09-24T06:36:42.352Z,60.59
2022-09-24T06:38:09.759Z,59.94
2022-09-24T06:38:42.327Z,58.81
2022-09-24T06:39:42.320Z,58.01
2022-09-24T06:40:42.330Z,59.46
2022-09-24T06:41:42.304Z,60.26
2022-09-24T06:42:42.303Z,58.17
2022-09-24T06:43:42.279Z,60.59
2022-09-24T06:44:42.279Z,59.94
2022-09-24T06:45:42.261Z,60.10
2022-09-24T06:46:42.273Z,61.55
2022-09-24T06:47:42.258Z,60.26
2022-09-24T06:48:42.231Z,59.46
2022-09-24T06:49:42.225Z,60.91
2022-09-24T06:50:42.210Z,60.59
2022-09-24T06:51:42.204Z,61.23
2022-09-24T06:52:42.218Z,59.94
2022-09-24T06:53:42.180Z,59.94
2022-09-24T06:54:42.176Z,62.36
2022-09-24T06:55:42.168Z,61.07
2022-09-24T06:56:42.152Z,58.81
2022-09-24T06:57:42.169Z,60.26
2022-09-24T06:58:42.129Z,58.97
2022-09-24T06:59:42.123Z,58.81
2022-09-24T07:00:42.176Z,59.94
2022-09-24T07:01:42.215Z,59.14
2022-09-24T07:02:42.148Z,58.97
2022-09-24T07:03:42.081Z,59.62
2022-09-24T07:04:42.066Z,59.46
2022-09-24T07:05:43.711Z,60.59
2022-09-24T07:06:43.038Z,60.10
2022-09-24T07:07:42.053Z,59.94
2022-09-24T07:08:42.031Z,59.62
2022-09-24T07:09:42.021Z,60.59
2022-09-24T07:10:41.998Z,59.62
2022-09-24T07:11:41.997Z,60.75
2022-09-24T07:12:42.007Z,60.42
2022-09-24T07:13:41.976Z,60.91
2022-09-24T07:14:41.951Z,58.97
2022-09-24T07:15:42.045Z,61.39
2022-09-24T07:16:41.938Z,59.94
2022-09-24T07:17:41.947Z,60.59
2022-09-24T07:18:41.918Z,59.78
2022-09-24T07:19:41.906Z,59.78
2022-09-24T07:20:41.898Z,60.26
2022-09-24T07:21:41.893Z,59.78
2022-09-24T07:22:41.892Z,61.07
2022-09-24T07:23:41.874Z,61.39
2022-09-24T07:24:41.869Z,59.94
2022-09-24T07:25:41.853Z,60.91
2022-09-24T07:26:41.830Z,60.59
2022-09-24T07:27:41.849Z,59.94
2022-09-24T07:28:41.813Z,58.97
2022-09-24T07:29:41.809Z,59.94
2022-09-24T07:30:41.796Z,59.62
2022-09-24T07:31:41.855Z,58.49
2022-09-24T07:32:41.800Z,61.07
2022-09-24T07:33:41.768Z,60.10
2022-09-24T07:34:41.756Z,60.59
2022-09-24T07:35:41.744Z,60.59
2022-09-24T07:36:41.745Z,59.62
2022-09-24T07:37:41.748Z,58.81
2022-09-24T07:38:41.730Z,58.65
2022-09-24T07:39:41.711Z,59.78
2022-09-24T07:40:41.712Z,58.97
2022-09-24T07:41:42.244Z,58.49
2022-09-24T07:42:42.689Z,58.65
2022-09-24T07:43:41.663Z,59.46
2022-09-24T07:44:41.653Z,59.30
2022-09-24T07:45:41.643Z,59.62
2022-09-24T07:46:41.705Z,60.59
2022-09-24T07:47:41.637Z,57.85
2022-09-24T07:48:41.614Z,58.49
2022-09-24T07:49:41.612Z,60.42
2022-09-24T07:50:41.608Z,59.30
2022-09-24T07:51:41.588Z,59.62
2022-09-24T07:52:41.595Z,58.49
2022-09-24T07:53:41.636Z,58.17
2022-09-24T07:54:41.551Z,58.33
2022-09-24T07:55:41.680Z,60.59
2022-09-24T07:56:41.534Z,60.26
2022-09-24T07:57:41.576Z,57.36
2022-09-24T07:58:41.521Z,58.97
2022-09-24T07:59:41.518Z,58.49
2022-09-24T08:00:41.514Z,59.30
2022-09-24T08:01:41.553Z,59.94
2022-09-24T08:02:41.493Z,58.49
2022-09-24T08:03:41.528Z,59.62
2022-09-24T08:04:41.459Z,57.20
2022-09-24T08:05:41.455Z,58.65
2022-09-24T08:06:46.609Z,58.81
2022-09-24T08:07:41.456Z,59.94
2022-09-24T08:08:41.421Z,59.30
2022-09-24T08:09:41.414Z,57.69
2022-09-24T08:10:41.393Z,58.33
2022-09-24T08:11:41.396Z,57.36
2022-09-24T08:12:41.407Z,57.52
2022-09-24T08:13:41.371Z,58.01
2022-09-24T08:14:41.350Z,57.52
2022-09-24T08:15:41.400Z,58.49
2022-09-24T08:16:41.349Z,56.40
2022-09-24T08:17:41.346Z,58.49
2022-09-24T08:18:41.315Z,57.52
2022-09-24T08:19:41.316Z,56.07
2022-09-24T08:20:41.301Z,59.62
2022-09-24T08:21:41.306Z,58.33
2022-09-24T08:22:41.295Z,58.17
2022-09-24T08:23:41.267Z,57.85
2022-09-24T08:24:42.264Z,58.65
2022-09-24T08:25:41.263Z,56.88
2022-09-24T08:26:41.245Z,55.59
2022-09-24T08:27:41.249Z,54.79
2022-09-24T08:28:41.224Z,56.72
2022-09-24T08:29:41.216Z,58.17
2022-09-24T08:30:41.193Z,57.36
2022-09-24T08:31:41.232Z,58.17
2022-09-24T08:32:41.204Z,58.81
2022-09-24T08:33:41.182Z,58.81
2022-09-24T08:34:41.156Z,60.10
2022-09-24T08:35:41.147Z,59.94
2022-09-24T08:36:43.193Z,60.75
2022-09-24T08:37:42.173Z,60.42
2022-09-24T08:38:41.114Z,59.62
2022-09-24T08:39:41.111Z,58.49
2022-09-24T08:40:41.163Z,57.69
2022-09-24T08:41:41.090Z,56.40
2022-09-24T08:42:41.096Z,58.01
2022-09-24T08:43:41.072Z,57.04
2022-09-24T08:44:41.067Z,57.52
2022-09-24T08:45:41.063Z,58.33
2022-09-24T08:46:41.136Z,58.01
2022-09-24T08:47:41.045Z,58.01
2022-09-24T08:48:41.022Z,57.36
2022-09-24T08:49:41.012Z,58.01
2022-09-24T08:50:41.001Z,58.49
2022-09-24T08:51:40.991Z,56.40
2022-09-24T08:52:41.009Z,55.43
2022-09-24T08:53:40.967Z,57.69
2022-09-24T08:54:40.962Z,58.17
2022-09-24T08:55:40.950Z,59.14
2022-09-24T08:56:40.945Z,58.65
2022-09-24T08:57:41.019Z,57.52
2022-09-24T08:58:44.465Z,57.52
2022-09-24T08:59:40.901Z,57.20
2022-09-24T09:00:41.899Z,57.69
2022-09-24T09:01:40.960Z,58.97
2022-09-24T09:02:41.043Z,58.17
2022-09-24T09:03:40.873Z,58.01
2022-09-24T09:04:40.854Z,58.81
2022-09-24T09:05:41.591Z,57.52
2022-09-24T09:06:41.838Z,56.88
2022-09-24T09:07:40.856Z,58.49
2022-09-24T09:09:05.822Z,59.46
2022-09-24T09:09:42.814Z,59.46
2022-09-24T09:10:40.799Z,58.49
2022-09-24T09:11:40.793Z,58.17
2022-09-24T09:12:40.795Z,58.01
2022-09-24T09:13:40.788Z,59.30
2022-09-24T09:14:42.293Z,59.46
2022-09-24T09:15:40.814Z,59.14
2022-09-24T09:16:40.791Z,58.01
2022-09-24T09:17:40.750Z,60.10
2022-09-24T09:18:40.747Z,57.36
2022-09-24T09:19:40.701Z,58.97
2022-09-24T09:20:40.697Z,58.17
2022-09-24T09:21:40.685Z,57.69
2022-09-24T09:22:40.664Z,58.65
2022-09-24T09:23:40.689Z,59.78
2022-09-24T09:24:40.658Z,58.49
2022-09-24T09:25:40.651Z,59.46
2022-09-24T09:26:40.632Z,57.85
2022-09-24T09:27:40.618Z,57.85
2022-09-24T09:28:40.640Z,57.85
2022-09-24T09:29:40.600Z,58.97
2022-09-24T09:30:40.587Z,57.85
2022-09-24T09:31:40.647Z,58.01
2022-09-24T09:32:40.576Z,56.88
2022-09-24T09:33:40.576Z,55.91
2022-09-24T09:34:40.545Z,55.91
2022-09-24T09:35:40.542Z,56.88
2022-09-24T09:36:40.533Z,57.20
2022-09-24T09:37:40.523Z,57.52
2022-09-24T09:38:40.535Z,58.49
2022-09-24T09:39:40.497Z,58.49
2022-09-24T09:40:40.536Z,58.49
2022-09-24T09:41:40.489Z,58.17
2022-09-24T09:42:40.595Z,57.36
2022-09-24T09:43:40.488Z,57.04
2022-09-24T09:44:40.453Z,56.40
2022-09-24T09:45:40.429Z,57.36
2022-09-24T09:46:40.485Z,58.49
2022-09-24T09:47:40.445Z,57.04
2022-09-24T09:48:40.407Z,57.36
2022-09-24T09:49:40.395Z,56.40
2022-09-24T09:50:40.392Z,57.04
2022-09-24T09:51:40.380Z,58.81
2022-09-24T09:52:40.391Z,56.40
2022-09-24T09:53:40.361Z,59.46
2022-09-24T09:54:40.347Z,57.52
2022-09-24T09:55:40.343Z,58.17
2022-09-24T09:56:40.333Z,57.69
2022-09-24T09:57:40.338Z,58.33
2022-09-24T09:58:40.308Z,59.30
2022-09-24T09:59:40.301Z,56.72
2022-09-24T10:00:40.292Z,58.17
2022-09-24T10:01:40.274Z,57.85
2022-09-24T10:02:40.432Z,59.46
2022-09-24T10:03:40.317Z,58.17
2022-09-24T10:04:40.286Z,56.72
2022-09-24T10:05:40.242Z,58.01
2022-09-24T10:06:40.229Z,59.78
2022-09-24T10:07:40.260Z,59.78
2022-09-24T10:08:41.211Z,58.17
2022-09-24T10:09:40.209Z,57.20
2022-09-24T10:10:40.205Z,58.49
2022-09-24T10:11:40.182Z,59.30
2022-09-24T10:12:40.203Z,58.49
2022-09-24T10:13:40.158Z,57.20
2022-09-24T10:14:40.147Z,58.49
2022-09-24T10:15:45.205Z,57.52
2022-09-24T10:16:42.245Z,58.65
2022-09-24T10:17:40.123Z,56.88
2022-09-24T10:18:40.134Z,59.78
2022-09-24T10:19:40.108Z,58.49
2022-09-24T10:20:40.090Z,57.69
2022-09-24T10:21:40.070Z,60.10
2022-09-24T10:22:40.080Z,59.46
2022-09-24T10:23:40.080Z,57.52
2022-09-24T10:24:40.071Z,58.49
2022-09-24T10:25:40.030Z,58.49
2022-09-24T10:26:44.835Z,57.36
2022-09-24T10:27:42.046Z,57.52
2022-09-24T10:28:40.014Z,58.65
2022-09-24T10:29:40.000Z,58.01
2022-09-24T10:30:39.984Z,60.10
2022-09-24T10:31:41.054Z,57.36
2022-09-24T10:32:39.994Z,58.01
2022-09-24T10:33:39.950Z,58.01
2022-09-24T10:34:39.965Z,59.62
2022-09-24T10:35:39.956Z,58.49
2022-09-24T10:36:39.931Z,58.49
2022-09-24T10:37:39.930Z,58.65
2022-09-24T10:38:39.910Z,58.49
2022-09-24T10:39:39.900Z,58.49
2022-09-24T10:40:39.957Z,58.49
2022-09-24T10:41:39.876Z,56.24
2022-09-24T10:42:39.892Z,59.30
2022-09-24T10:43:39.863Z,56.88
2022-09-24T10:44:39.857Z,58.49
2022-09-24T10:45:39.840Z,59.94
2022-09-24T10:46:39.865Z,57.04
2022-09-24T10:47:39.838Z,59.78
2022-09-24T10:48:39.808Z,58.65
2022-09-24T10:49:39.805Z,57.52
2022-09-24T10:50:39.791Z,59.62
2022-09-24T10:51:39.782Z,58.17
2022-09-24T10:52:39.798Z,57.52
2022-09-24T10:53:39.766Z,58.65
2022-09-24T10:54:39.752Z,58.49
2022-09-24T10:55:39.748Z,58.17
2022-09-24T10:56:45.214Z,58.17
2022-09-24T10:57:39.748Z,58.17
2022-09-24T10:58:39.710Z,58.65
2022-09-24T10:59:39.717Z,57.69
2022-09-24T11:00:39.688Z,58.01
2022-09-24T11:01:39.761Z,58.81
2022-09-24T11:02:39.723Z,57.69
2022-09-24T11:03:39.659Z,56.40
2022-09-24T11:04:39.647Z,57.85
2022-09-24T11:05:39.646Z,59.78
2022-09-24T11:06:39.631Z,57.20
2022-09-24T11:07:39.644Z,59.78
2022-09-24T11:08:39.612Z,57.52
2022-09-24T11:09:39.598Z,58.81
2022-09-24T11:10:41.438Z,58.33
2022-09-24T11:11:39.585Z,58.65
2022-09-24T11:12:39.594Z,59.46
2022-09-24T11:13:39.565Z,58.97
2022-09-24T11:14:39.554Z,57.36
2022-09-24T11:15:39.583Z,58.65
2022-09-24T11:16:39.522Z,57.36
2022-09-24T11:17:39.544Z,60.10
2022-09-24T11:18:39.514Z,58.01
2022-09-24T11:19:39.497Z,57.20
2022-09-24T11:20:39.555Z,56.24
2022-09-24T11:21:39.480Z,57.04
2022-09-24T11:22:39.497Z,58.17
2022-09-24T11:23:39.463Z,57.20
2022-09-24T11:24:39.471Z,57.36
2022-09-24T11:25:39.441Z,58.49
2022-09-24T11:26:39.431Z,58.97
2022-09-24T11:27:39.441Z,58.81
2022-09-24T11:28:39.405Z,59.46
2022-09-24T11:29:39.398Z,57.36
2022-09-24T11:30:39.393Z,57.85
2022-09-24T11:31:39.437Z,58.01
2022-09-24T11:32:39.383Z,58.49
2022-09-24T11:33:39.364Z,59.14
2022-09-24T11:34:39.358Z,58.65
2022-09-24T11:35:39.339Z,58.81
2022-09-24T11:36:39.399Z,58.33
2022-09-24T11:37:39.359Z,56.72
2022-09-24T11:38:39.315Z,58.17
2022-09-24T11:39:39.298Z,57.04
2022-09-24T11:40:39.344Z,57.69
2022-09-24T11:41:39.274Z,57.69
2022-09-24T11:42:39.356Z,57.85
2022-09-24T11:43:39.264Z,58.49
2022-09-24T11:44:39.245Z,57.85
2022-09-24T11:45:39.235Z,55.91
2022-09-24T11:46:39.256Z,58.17
2022-09-24T11:47:39.244Z,58.81
2022-09-24T11:48:39.219Z,56.88
2022-09-24T11:49:39.207Z,58.01
2022-09-24T11:50:42.441Z,56.24
2022-09-24T11:51:40.194Z,53.98
2022-09-24T11:52:39.206Z,57.52
2022-09-24T11:53:39.160Z,56.40
2022-09-24T11:54:39.164Z,58.65
2022-09-24T11:55:39.132Z,57.69
2022-09-24T11:56:39.124Z,57.85
2022-09-24T11:57:39.121Z,59.14
2022-09-24T11:58:39.153Z,57.52
2022-09-24T11:59:39.099Z,57.36
2022-09-24T12:00:39.080Z,58.81
2022-09-24T12:01:39.103Z,59.62
2022-09-24T12:02:40.145Z,58.49
2022-09-24T12:03:39.077Z,59.62
2022-09-24T12:04:39.057Z,59.14
2022-09-24T12:05:39.036Z,57.04
2022-09-24T12:06:39.036Z,58.81
2022-09-24T12:07:39.024Z,57.52
2022-09-24T12:08:39.035Z,56.56
2022-09-24T12:09:39.002Z,57.85
2022-09-24T12:10:38.991Z,57.52
2022-09-24T12:11:38.982Z,57.52
2022-09-24T12:12:38.969Z,58.65
2022-09-24T12:13:38.975Z,58.01
2022-09-24T12:14:38.949Z,58.01
2022-09-24T12:15:38.985Z,58.01
2022-09-24T12:16:38.975Z,57.85
2022-09-24T12:17:38.920Z,56.07
2022-09-24T12:18:38.930Z,55.27
2022-09-24T12:19:38.900Z,55.91
2022-09-24T12:20:38.889Z,56.88
2022-09-24T12:21:38.884Z,58.49
2022-09-24T12:22:38.872Z,56.88
2022-09-24T12:23:38.882Z,58.49
2022-09-24T12:24:38.936Z,58.01
2022-09-24T12:25:38.842Z,60.26
2022-09-24T12:26:38.864Z,59.62
2022-09-24T12:27:38.817Z,58.49
2022-09-24T12:28:38.828Z,59.14
2022-09-24T12:29:38.800Z,60.10
2022-09-24T12:30:38.796Z,59.94
2022-09-24T12:31:38.883Z,58.97
2022-09-24T12:32:38.766Z,58.17
2022-09-24T12:33:38.783Z,59.30
2022-09-24T12:34:38.748Z,60.91
2022-09-24T12:35:38.742Z,58.01
2022-09-24T12:36:38.733Z,59.46
2022-09-24T12:37:38.737Z,57.52
2022-09-24T12:38:38.746Z,56.88
2022-09-24T12:39:38.696Z,58.81
2022-09-24T12:40:38.763Z,58.81
2022-09-24T12:41:38.686Z,60.10
2022-09-24T12:42:38.671Z,59.14
2022-09-24T12:43:38.670Z,58.65
2022-09-24T12:44:38.644Z,58.49
2022-09-24T12:45:39.646Z,59.94
2022-09-24T12:46:38.743Z,59.30
2022-09-24T12:47:38.623Z,59.94
2022-09-24T12:48:38.637Z,59.14
2022-09-24T12:49:38.598Z,60.42
2022-09-24T12:50:38.594Z,61.07
2022-09-24T12:51:38.582Z,59.94
2022-09-24T12:52:38.576Z,60.75